sensor_id;sensor_type;location;lat;lon;timestamp;P1;durP1;ratioP1;P2;durP2;ratioP2
3643;SDS011;1838;50.742;7.158;2022-10-16T00:01:12;3.80;;;2.87;;
3643;SDS011;1838;50.742;7.158;2022-10-16T00:03:39;6.60;;;3.17;;
3643;SDS011;1838;50.742;7.158;2022-10-16T00:06:06;3.27;;;2.97;;
3643;SDS011;1838;50.742;7.158;2022-10-16T00:08:33;3.37;;;3.07;;
3643;SDS011;1838;50.742;7.158;2022-10-16T00:11:04;4.47;;;2.67;;
3643;SDS011;1838;50.742;7.158;2022-10-16T00:13:32;7.40;;;3.40;;
3643;SDS011;1838;50.742;7.158;2022-10-16T00:15:59;4.10;;;3.50;;
3643;SDS011;1838;50.742;7.158;2022-10-16T00:18:25;4.07;;;3.30;;
3643;SDS011;1838;50.742;7.158;2022-10-16T00:20:52;3.10;;;2.80;;
3643;SDS011;1838;50.742;7.158;2022-10-16T00:23:17;5.57;;;3.53;;
3643;SDS011;1838;50.742;7.158;2022-10-16T00:25:43;4.70;;;2.83;;
3643;SDS011;1838;50.742;7.158;2022-10-16T00:28:09;4.67;;;3.50;;
3643;SDS011;1838;50.742;7.158;2022-10-16T00:30:37;4.80;;;3.50;;
3643;SDS011;1838;50.742;7.158;2022-10-16T00:33:03;5.63;;;3.77;;
3643;SDS011;1838;50.742;7.158;2022-10-16T00:35:28;9.00;;;3.17;;
3643;SDS011;1838;50.742;7.158;2022-10-16T00:37:55;4.03;;;3.20;;
3643;SDS011;1838;50.742;7.158;2022-10-16T00:40:20;4.10;;;3.03;;
3643;SDS011;1838;50.742;7.158;2022-10-16T00:42:46;8.70;;;3.50;;
3643;SDS011;1838;50.742;7.158;2022-10-16T00:45:11;6.80;;;2.70;;
3643;SDS011;1838;50.742;7.158;2022-10-16T00:47:40;3.27;;;2.80;;
3643;SDS011;1838;50.742;7.158;2022-10-16T00:50:16;5.20;;;3.30;;
3643;SDS011;1838;50.742;7.158;2022-10-16T00:52:48;3.10;;;2.80;;
3643;SDS011;1838;50.742;7.158;2022-10-16T00:55:16;4.27;;;2.53;;
3643;SDS011;1838;50.742;7.158;2022-10-16T00:57:42;3.73;;;3.37;;
3643;SDS011;1838;50.742;7.158;2022-10-16T01:00:09;3.77;;;2.97;;
3643;SDS011;1838;50.742;7.158;2022-10-16T01:02:37;4.73;;;3.00;;
3643;SDS011;1838;50.742;7.158;2022-10-16T01:05:02;3.80;;;2.60;;
3643;SDS011;1838;50.742;7.158;2022-10-16T01:07:33;4.37;;;2.53;;
3643;SDS011;1838;50.742;7.158;2022-10-16T01:10:12;5.60;;;3.80;;
3643;SDS011;1838;50.742;7.158;2022-10-16T01:15:40;3.90;;;3.00;;
3643;SDS011;1838;50.742;7.158;2022-10-16T01:18:18;4.53;;;3.07;;
3643;SDS011;1838;50.742;7.158;2022-10-16T01:23:43;7.00;;;3.10;;
3643;SDS011;1838;50.742;7.158;2022-10-16T01:29:03;4.23;;;2.80;;
3643;SDS011;1838;50.742;7.158;2022-10-16T01:31:39;5.17;;;2.80;;
3643;SDS011;1838;50.742;7.158;2022-10-16T01:34:10;2.90;;;2.40;;
3643;SDS011;1838;50.742;7.158;2022-10-16T01:36:49;10.57;;;3.00;;
3643;SDS011;1838;50.742;7.158;2022-10-16T01:39:22;6.73;;;2.57;;
3643;SDS011;1838;50.742;7.158;2022-10-16T01:41:54;4.03;;;2.50;;
3643;SDS011;1838;50.742;7.158;2022-10-16T01:44:29;6.47;;;2.80;;
3643;SDS011;1838;50.742;7.158;2022-10-16T01:46:58;3.97;;;2.60;;
3643;SDS011;1838;50.742;7.158;2022-10-16T01:49:25;7.50;;;2.47;;
3643;SDS011;1838;50.742;7.158;2022-10-16T01:51:55;4.67;;;2.70;;
3643;SDS011;1838;50.742;7.158;2022-10-16T01:54:25;5.47;;;3.33;;
3643;SDS011;1838;50.742;7.158;2022-10-16T01:56:53;3.13;;;2.30;;
3643;SDS011;1838;50.742;7.158;2022-10-16T01:59:21;14.43;;;2.77;;
3643;SDS011;1838;50.742;7.158;2022-10-16T02:01:50;8.63;;;2.50;;
3643;SDS011;1838;50.742;7.158;2022-10-16T02:04:22;3.47;;;2.60;;
3643;SDS011;1838;50.742;7.158;2022-10-16T02:06:52;8.43;;;3.13;;
3643;SDS011;1838;50.742;7.158;2022-10-16T02:09:18;6.50;;;2.40;;
3643;SDS011;1838;50.742;7.158;2022-10-16T02:11:44;4.93;;;2.90;;
3643;SDS011;1838;50.742;7.158;2022-10-16T02:14:10;4.77;;;1.60;;
3643;SDS011;1838;50.742;7.158;2022-10-16T02:16:37;2.30;;;2.00;;
3643;SDS011;1838;50.742;7.158;2022-10-16T02:19:07;2.93;;;2.10;;
3643;SDS011;1838;50.742;7.158;2022-10-16T02:21:43;2.57;;;2.37;;
3643;SDS011;1838;50.742;7.158;2022-10-16T02:29:42;5.83;;;2.43;;
3643;SDS011;1838;50.742;7.158;2022-10-16T02:32:15;3.43;;;2.30;;
3643;SDS011;1838;50.742;7.158;2022-10-16T02:34:44;2.80;;;1.97;;
3643;SDS011;1838;50.742;7.158;2022-10-16T02:37:13;6.23;;;1.97;;
3643;SDS011;1838;50.742;7.158;2022-10-16T02:39:39;5.13;;;2.10;;
3643;SDS011;1838;50.742;7.158;2022-10-16T02:42:09;5.87;;;1.93;;
3643;SDS011;1838;50.742;7.158;2022-10-16T02:44:36;3.10;;;2.33;;
3643;SDS011;1838;50.742;7.158;2022-10-16T02:47:02;5.07;;;1.90;;
3643;SDS011;1838;50.742;7.158;2022-10-16T02:49:27;2.40;;;1.70;;
3643;SDS011;1838;50.742;7.158;2022-10-16T02:51:53;2.10;;;1.90;;
3643;SDS011;1838;50.742;7.158;2022-10-16T02:54:18;3.50;;;1.80;;
3643;SDS011;1838;50.742;7.158;2022-10-16T02:56:44;5.20;;;2.07;;
3643;SDS011;1838;50.742;7.158;2022-10-16T02:59:09;5.53;;;2.03;;
3643;SDS011;1838;50.742;7.158;2022-10-16T03:01:35;2.30;;;1.80;;
3643;SDS011;1838;50.742;7.158;2022-10-16T03:04:00;2.50;;;2.10;;
3643;SDS011;1838;50.742;7.158;2022-10-16T03:06:26;4.40;;;2.37;;
3643;SDS011;1838;50.742;7.158;2022-10-16T03:08:51;3.00;;;2.03;;
3643;SDS011;1838;50.742;7.158;2022-10-16T03:11:17;9.13;;;2.00;;
3643;SDS011;1838;50.742;7.158;2022-10-16T03:13:42;13.13;;;1.70;;
3643;SDS011;1838;50.742;7.158;2022-10-16T03:16:08;2.80;;;1.80;;
3643;SDS011;1838;50.742;7.158;2022-10-16T03:18:33;3.50;;;1.60;;
3643;SDS011;1838;50.742;7.158;2022-10-16T03:20:59;5.60;;;2.30;;
3643;SDS011;1838;50.742;7.158;2022-10-16T03:23:24;2.60;;;1.90;;
3643;SDS011;1838;50.742;7.158;2022-10-16T03:25:50;2.70;;;1.37;;
3643;SDS011;1838;50.742;7.158;2022-10-16T03:28:15;5.33;;;1.70;;
3643;SDS011;1838;50.742;7.158;2022-10-16T03:30:42;9.80;;;1.70;;
3643;SDS011;1838;50.742;7.158;2022-10-16T03:33:08;3.00;;;1.73;;
3643;SDS011;1838;50.742;7.158;2022-10-16T03:35:34;2.00;;;1.77;;
3643;SDS011;1838;50.742;7.158;2022-10-16T03:37:59;5.30;;;1.40;;
3643;SDS011;1838;50.742;7.158;2022-10-16T03:40:25;1.80;;;1.37;;
3643;SDS011;1838;50.742;7.158;2022-10-16T03:42:50;1.90;;;1.50;;
3643;SDS011;1838;50.742;7.158;2022-10-16T03:45:16;1.87;;;1.67;;
3643;SDS011;1838;50.742;7.158;2022-10-16T03:47:42;4.00;;;1.87;;
3643;SDS011;1838;50.742;7.158;2022-10-16T03:50:07;3.50;;;1.57;;
3643;SDS011;1838;50.742;7.158;2022-10-16T03:52:33;2.30;;;1.47;;
3643;SDS011;1838;50.742;7.158;2022-10-16T03:54:59;2.23;;;1.53;;
3643;SDS011;1838;50.742;7.158;2022-10-16T03:57:24;2.57;;;1.90;;
3643;SDS011;1838;50.742;7.158;2022-10-16T03:59:50;2.92;;;1.90;;
3643;SDS011;1838;50.742;7.158;2022-10-16T04:02:16;1.97;;;1.53;;
3643;SDS011;1838;50.742;7.158;2022-10-16T04:04:41;3.40;;;1.97;;
3643;SDS011;1838;50.742;7.158;2022-10-16T04:07:07;2.30;;;1.70;;
3643;SDS011;1838;50.742;7.158;2022-10-16T04:09:32;2.43;;;1.50;;
3643;SDS011;1838;50.742;7.158;2022-10-16T04:11:58;5.23;;;1.80;;
3643;SDS011;1838;50.742;7.158;2022-10-16T04:14:23;1.90;;;1.50;;
3643;SDS011;1838;50.742;7.158;2022-10-16T04:16:49;4.47;;;1.97;;
3643;SDS011;1838;50.742;7.158;2022-10-16T04:19:14;4.30;;;2.00;;
3643;SDS011;1838;50.742;7.158;2022-10-16T04:21:40;2.10;;;1.37;;
3643;SDS011;1838;50.742;7.158;2022-10-16T04:24:05;2.20;;;1.90;;
3643;SDS011;1838;50.742;7.158;2022-10-16T04:26:31;2.70;;;2.00;;
3643;SDS011;1838;50.742;7.158;2022-10-16T04:28:56;3.97;;;1.63;;
3643;SDS011;1838;50.742;7.158;2022-10-16T04:31:22;4.40;;;1.70;;
3643;SDS011;1838;50.742;7.158;2022-10-16T04:33:48;4.50;;;1.83;;
3643;SDS011;1838;50.742;7.158;2022-10-16T04:36:13;2.20;;;1.73;;
3643;SDS011;1838;50.742;7.158;2022-10-16T04:38:39;4.20;;;1.80;;
3643;SDS011;1838;50.742;7.158;2022-10-16T04:41:05;2.90;;;1.77;;
3643;SDS011;1838;50.742;7.158;2022-10-16T04:43:31;2.50;;;2.13;;
3643;SDS011;1838;50.742;7.158;2022-10-16T04:45:57;5.60;;;2.17;;
3643;SDS011;1838;50.742;7.158;2022-10-16T04:48:23;4.60;;;2.20;;
3643;SDS011;1838;50.742;7.158;2022-10-16T04:50:48;5.20;;;2.07;;
3643;SDS011;1838;50.742;7.158;2022-10-16T04:53:14;7.43;;;2.60;;
3643;SDS011;1838;50.742;7.158;2022-10-16T04:55:40;2.80;;;2.20;;
3643;SDS011;1838;50.742;7.158;2022-10-16T04:58:07;2.67;;;2.33;;
3643;SDS011;1838;50.742;7.158;2022-10-16T05:00:33;4.63;;;2.87;;
3643;SDS011;1838;50.742;7.158;2022-10-16T05:02:59;3.83;;;2.80;;
3643;SDS011;1838;50.742;7.158;2022-10-16T05:05:25;5.37;;;2.60;;
3643;SDS011;1838;50.742;7.158;2022-10-16T05:07:51;2.90;;;2.70;;
3643;SDS011;1838;50.742;7.158;2022-10-16T05:10:17;5.87;;;2.53;;
3643;SDS011;1838;50.742;7.158;2022-10-16T05:12:43;3.40;;;2.60;;
3643;SDS011;1838;50.742;7.158;2022-10-16T05:15:09;4.57;;;2.30;;
3643;SDS011;1838;50.742;7.158;2022-10-16T05:17:34;5.33;;;2.90;;
3643;SDS011;1838;50.742;7.158;2022-10-16T05:20:00;3.83;;;3.47;;
3643;SDS011;1838;50.742;7.158;2022-10-16T05:22:25;3.67;;;2.90;;
3643;SDS011;1838;50.742;7.158;2022-10-16T05:24:51;2.70;;;2.50;;
3643;SDS011;1838;50.742;7.158;2022-10-16T05:27:16;2.83;;;2.50;;
3643;SDS011;1838;50.742;7.158;2022-10-16T05:29:45;3.07;;;2.63;;
3643;SDS011;1838;50.742;7.158;2022-10-16T05:32:12;7.83;;;3.20;;
3643;SDS011;1838;50.742;7.158;2022-10-16T05:34:38;4.33;;;2.80;;
3643;SDS011;1838;50.742;7.158;2022-10-16T05:37:04;4.77;;;3.03;;
3643;SDS011;1838;50.742;7.158;2022-10-16T05:39:29;6.03;;;2.67;;
3643;SDS011;1838;50.742;7.158;2022-10-16T05:41:55;5.73;;;3.33;;
3643;SDS011;1838;50.742;7.158;2022-10-16T05:44:21;4.57;;;2.80;;
3643;SDS011;1838;50.742;7.158;2022-10-16T05:46:46;14.00;;;3.37;;
3643;SDS011;1838;50.742;7.158;2022-10-16T05:49:12;2.90;;;2.70;;
3643;SDS011;1838;50.742;7.158;2022-10-16T05:51:37;8.00;;;2.90;;
3643;SDS011;1838;50.742;7.158;2022-10-16T05:54:03;2.77;;;2.53;;
3643;SDS011;1838;50.742;7.158;2022-10-16T05:56:29;6.30;;;3.00;;
3643;SDS011;1838;50.742;7.158;2022-10-16T05:58:54;3.03;;;2.13;;
3643;SDS011;1838;50.742;7.158;2022-10-16T06:01:20;3.20;;;2.83;;
3643;SDS011;1838;50.742;7.158;2022-10-16T06:03:48;5.80;;;2.83;;
3643;SDS011;1838;50.742;7.158;2022-10-16T06:06:18;3.17;;;2.97;;
3643;SDS011;1838;50.742;7.158;2022-10-16T06:08:45;4.63;;;2.67;;
3643;SDS011;1838;50.742;7.158;2022-10-16T06:11:13;2.90;;;2.40;;
3643;SDS011;1838;50.742;7.158;2022-10-16T06:13:41;5.10;;;2.33;;
3643;SDS011;1838;50.742;7.158;2022-10-16T06:16:07;3.60;;;2.57;;
3643;SDS011;1838;50.742;7.158;2022-10-16T06:18:34;6.73;;;2.60;;
3643;SDS011;1838;50.742;7.158;2022-10-16T06:21:06;3.53;;;3.23;;
3643;SDS011;1838;50.742;7.158;2022-10-16T06:23:51;4.97;;;2.87;;
3643;SDS011;1838;50.742;7.158;2022-10-16T06:26:18;2.80;;;2.10;;
3643;SDS011;1838;50.742;7.158;2022-10-16T06:28:45;2.47;;;2.13;;
3643;SDS011;1838;50.742;7.158;2022-10-16T06:31:11;4.03;;;2.63;;
3643;SDS011;1838;50.742;7.158;2022-10-16T06:33:37;5.20;;;2.60;;
3643;SDS011;1838;50.742;7.158;2022-10-16T06:36:04;2.60;;;2.40;;
3643;SDS011;1838;50.742;7.158;2022-10-16T06:38:31;4.30;;;2.00;;
3643;SDS011;1838;50.742;7.158;2022-10-16T06:40:57;4.50;;;3.00;;
3643;SDS011;1838;50.742;7.158;2022-10-16T06:43:22;9.93;;;2.90;;
3643;SDS011;1838;50.742;7.158;2022-10-16T06:45:55;2.97;;;2.43;;
3643;SDS011;1838;50.742;7.158;2022-10-16T06:48:22;2.80;;;2.20;;
3643;SDS011;1838;50.742;7.158;2022-10-16T06:53:45;5.37;;;2.27;;
3643;SDS011;1838;50.742;7.158;2022-10-16T06:56:21;3.13;;;2.30;;
3643;SDS011;1838;50.742;7.158;2022-10-16T06:58:48;3.30;;;2.03;;
3643;SDS011;1838;50.742;7.158;2022-10-16T07:01:14;6.40;;;2.10;;
3643;SDS011;1838;50.742;7.158;2022-10-16T07:03:42;4.00;;;2.20;;
3643;SDS011;1838;50.742;7.158;2022-10-16T07:06:10;3.10;;;2.20;;
3643;SDS011;1838;50.742;7.158;2022-10-16T07:08:38;3.10;;;2.17;;
3643;SDS011;1838;50.742;7.158;2022-10-16T07:11:09;3.60;;;2.07;;
3643;SDS011;1838;50.742;7.158;2022-10-16T07:13:36;4.73;;;2.57;;
3643;SDS011;1838;50.742;7.158;2022-10-16T07:16:07;3.70;;;2.63;;
3643;SDS011;1838;50.742;7.158;2022-10-16T07:18:34;3.50;;;2.27;;
3643;SDS011;1838;50.742;7.158;2022-10-16T07:21:07;2.23;;;2.03;;
3643;SDS011;1838;50.742;7.158;2022-10-16T07:23:37;5.40;;;2.60;;
3643;SDS011;1838;50.742;7.158;2022-10-16T07:26:04;2.17;;;1.97;;
3643;SDS011;1838;50.742;7.158;2022-10-16T07:28:30;2.20;;;2.00;;
3643;SDS011;1838;50.742;7.158;2022-10-16T07:30:59;2.67;;;2.03;;
3643;SDS011;1838;50.742;7.158;2022-10-16T07:33:29;3.37;;;1.70;;
3643;SDS011;1838;50.742;7.158;2022-10-16T07:35:55;2.50;;;2.20;;
3643;SDS011;1838;50.742;7.158;2022-10-16T07:38:21;2.40;;;2.20;;
3643;SDS011;1838;50.742;7.158;2022-10-16T07:40:47;4.70;;;2.40;;
3643;SDS011;1838;50.742;7.158;2022-10-16T07:43:13;3.77;;;1.90;;
3643;SDS011;1838;50.742;7.158;2022-10-16T07:45:46;4.30;;;2.30;;
3643;SDS011;1838;50.742;7.158;2022-10-16T07:48:14;2.33;;;1.93;;
3643;SDS011;1838;50.742;7.158;2022-10-16T07:50:39;7.53;;;2.40;;
3643;SDS011;1838;50.742;7.158;2022-10-16T07:53:06;3.70;;;2.33;;
3643;SDS011;1838;50.742;7.158;2022-10-16T07:55:32;2.63;;;2.30;;
3643;SDS011;1838;50.742;7.158;2022-10-16T07:57:57;2.80;;;1.57;;
3643;SDS011;1838;50.742;7.158;2022-10-16T08:00:23;2.70;;;2.03;;
3643;SDS011;1838;50.742;7.158;2022-10-16T08:02:48;6.13;;;2.20;;
3643;SDS011;1838;50.742;7.158;2022-10-16T08:05:14;5.20;;;2.10;;
3643;SDS011;1838;50.742;7.158;2022-10-16T08:07:40;3.57;;;2.77;;
3643;SDS011;1838;50.742;7.158;2022-10-16T08:10:05;2.73;;;1.70;;
3643;SDS011;1838;50.742;7.158;2022-10-16T08:12:31;2.43;;;1.40;;
3643;SDS011;1838;50.742;7.158;2022-10-16T08:14:56;2.40;;;1.83;;
3643;SDS011;1838;50.742;7.158;2022-10-16T08:17:22;1.80;;;1.60;;
3643;SDS011;1838;50.742;7.158;2022-10-16T08:19:47;2.00;;;1.60;;
3643;SDS011;1838;50.742;7.158;2022-10-16T08:22:13;3.00;;;1.47;;
3643;SDS011;1838;50.742;7.158;2022-10-16T08:24:39;2.70;;;1.70;;
3643;SDS011;1838;50.742;7.158;2022-10-16T08:27:06;1.90;;;1.37;;
3643;SDS011;1838;50.742;7.158;2022-10-16T08:29:32;4.27;;;1.50;;
3643;SDS011;1838;50.742;7.158;2022-10-16T08:31:57;1.97;;;1.57;;
3643;SDS011;1838;50.742;7.158;2022-10-16T08:34:23;2.37;;;1.37;;
3643;SDS011;1838;50.742;7.158;2022-10-16T08:36:49;2.57;;;1.50;;
3643;SDS011;1838;50.742;7.158;2022-10-16T08:39:15;1.83;;;1.33;;
3643;SDS011;1838;50.742;7.158;2022-10-16T08:44:57;6.27;;;1.33;;
3643;SDS011;1838;50.742;7.158;2022-10-16T08:48:04;1.73;;;1.00;;
3643;SDS011;1838;50.742;7.158;2022-10-16T08:50:31;2.13;;;1.43;;
3643;SDS011;1838;50.742;7.158;2022-10-16T08:53:01;2.93;;;1.87;;
3643;SDS011;1838;50.742;7.158;2022-10-16T08:55:46;2.17;;;1.60;;
3643;SDS011;1838;50.742;7.158;2022-10-16T09:01:03;3.23;;;1.33;;
3643;SDS011;1838;50.742;7.158;2022-10-16T09:03:52;1.80;;;1.20;;
3643;SDS011;1838;50.742;7.158;2022-10-16T09:06:46;3.87;;;1.63;;
3643;SDS011;1838;50.742;7.158;2022-10-16T09:17:51;1.80;;;1.10;;
3643;SDS011;1838;50.742;7.158;2022-10-16T09:23:15;3.43;;;1.23;;
3643;SDS011;1838;50.742;7.158;2022-10-16T09:25:48;2.80;;;1.30;;
3643;SDS011;1838;50.742;7.158;2022-10-16T09:28:15;4.83;;;1.00;;
3643;SDS011;1838;50.742;7.158;2022-10-16T09:30:42;2.27;;;1.30;;
3643;SDS011;1838;50.742;7.158;2022-10-16T09:33:09;4.33;;;1.00;;
3643;SDS011;1838;50.742;7.158;2022-10-16T09:35:42;1.70;;;1.00;;
3643;SDS011;1838;50.742;7.158;2022-10-16T09:38:20;2.43;;;1.00;;
3643;SDS011;1838;50.742;7.158;2022-10-16T09:41:00;1.70;;;1.20;;
3643;SDS011;1838;50.742;7.158;2022-10-16T09:43:30;2.70;;;1.10;;
3643;SDS011;1838;50.742;7.158;2022-10-16T09:46:19;1.60;;;0.90;;
3643;SDS011;1838;50.742;7.158;2022-10-16T09:48:53;1.97;;;0.80;;
3643;SDS011;1838;50.742;7.158;2022-10-16T09:54:02;1.70;;;0.80;;
3643;SDS011;1838;50.742;7.158;2022-10-16T09:56:39;1.67;;;1.00;;
3643;SDS011;1838;50.742;7.158;2022-10-16T09:59:10;1.80;;;0.80;;
3643;SDS011;1838;50.742;7.158;2022-10-16T10:01:39;1.43;;;0.80;;
3643;SDS011;1838;50.742;7.158;2022-10-16T10:04:06;3.50;;;0.80;;
3643;SDS011;1838;50.742;7.158;2022-10-16T10:06:33;3.00;;;0.90;;
3643;SDS011;1838;50.742;7.158;2022-10-16T10:09:05;4.03;;;1.03;;
3643;SDS011;1838;50.742;7.158;2022-10-16T10:14:27;1.70;;;0.70;;
3643;SDS011;1838;50.742;7.158;2022-10-16T10:19:39;1.70;;;0.90;;
3643;SDS011;1838;50.742;7.158;2022-10-16T10:22:23;3.90;;;0.90;;
3643;SDS011;1838;50.742;7.158;2022-10-16T10:30:30;1.50;;;0.70;;
3643;SDS011;1838;50.742;7.158;2022-10-16T10:36:35;1.30;;;0.70;;
3643;SDS011;1838;50.742;7.158;2022-10-16T10:39:12;2.90;;;0.83;;
3643;SDS011;1838;50.742;7.158;2022-10-16T10:41:58;1.80;;;0.77;;
3643;SDS011;1838;50.742;7.158;2022-10-16T10:44:42;2.60;;;0.70;;
3643;SDS011;1838;50.742;7.158;2022-10-16T11:06:48;4.60;;;0.80;;
3643;SDS011;1838;50.742;7.158;2022-10-16T11:09:28;1.50;;;0.70;;
3643;SDS011;1838;50.742;7.158;2022-10-16T11:12:00;1.57;;;0.70;;
3643;SDS011;1838;50.742;7.158;2022-10-16T11:20:23;1.70;;;0.70;;
3643;SDS011;1838;50.742;7.158;2022-10-16T11:25:27;3.10;;;0.80;;
3643;SDS011;1838;50.742;7.158;2022-10-16T11:30:44;3.10;;;0.83;;
3643;SDS011;1838;50.742;7.158;2022-10-16T11:35:51;1.47;;;0.73;;
3643;SDS011;1838;50.742;7.158;2022-10-16T11:44:01;1.40;;;0.80;;
3643;SDS011;1838;50.742;7.158;2022-10-16T11:46:51;1.50;;;0.70;;
3643;SDS011;1838;50.742;7.158;2022-10-16T11:49:25;1.30;;;0.67;;
3643;SDS011;1838;50.742;7.158;2022-10-16T11:52:00;2.90;;;0.80;;
3643;SDS011;1838;50.742;7.158;2022-10-16T11:54:35;3.20;;;0.90;;
3643;SDS011;1838;50.742;7.158;2022-10-16T11:57:09;1.70;;;0.70;;
3643;SDS011;1838;50.742;7.158;2022-10-16T11:59:46;1.53;;;0.70;;
3643;SDS011;1838;50.742;7.158;2022-10-16T12:02:28;2.00;;;0.90;;
3643;SDS011;1838;50.742;7.158;2022-10-16T12:05:03;1.53;;;0.60;;
3643;SDS011;1838;50.742;7.158;2022-10-16T12:08:22;1.50;;;0.73;;
3643;SDS011;1838;50.742;7.158;2022-10-16T12:10:40;1.30;;;0.60;;
3643;SDS011;1838;50.742;7.158;2022-10-16T12:18:37;1.77;;;0.63;;
3643;SDS011;1838;50.742;7.158;2022-10-16T12:21:04;1.50;;;0.70;;
3643;SDS011;1838;50.742;7.158;2022-10-16T12:23:38;1.30;;;0.70;;
3643;SDS011;1838;50.742;7.158;2022-10-16T12:26:12;1.60;;;0.80;;
3643;SDS011;1838;50.742;7.158;2022-10-16T12:28:38;1.40;;;0.70;;
3643;SDS011;1838;50.742;7.158;2022-10-16T12:31:06;1.63;;;0.70;;
3643;SDS011;1838;50.742;7.158;2022-10-16T12:33:35;1.80;;;0.67;;
3643;SDS011;1838;50.742;7.158;2022-10-16T12:36:13;2.30;;;0.80;;
3643;SDS011;1838;50.742;7.158;2022-10-16T12:38:50;1.90;;;0.90;;
3643;SDS011;1838;50.742;7.158;2022-10-16T12:41:24;1.47;;;0.70;;
3643;SDS011;1838;50.742;7.158;2022-10-16T12:43:50;2.37;;;0.87;;
3643;SDS011;1838;50.742;7.158;2022-10-16T12:48:42;4.33;;;0.87;;
3643;SDS011;1838;50.742;7.158;2022-10-16T12:51:20;2.47;;;0.70;;
3643;SDS011;1838;50.742;7.158;2022-10-16T12:53:57;2.43;;;0.80;;
3643;SDS011;1838;50.742;7.158;2022-10-16T12:56:24;1.50;;;0.90;;
3643;SDS011;1838;50.742;7.158;2022-10-16T12:59:18;3.00;;;1.00;;
3643;SDS011;1838;50.742;7.158;2022-10-16T13:05:02;2.07;;;0.90;;
3643;SDS011;1838;50.742;7.158;2022-10-16T13:10:14;5.10;;;0.90;;
3643;SDS011;1838;50.742;7.158;2022-10-16T13:15:29;2.10;;;0.90;;
3643;SDS011;1838;50.742;7.158;2022-10-16T13:18:22;2.50;;;0.90;;
3643;SDS011;1838;50.742;7.158;2022-10-16T13:23:59;1.60;;;0.80;;
3643;SDS011;1838;50.742;7.158;2022-10-16T13:26:58;1.20;;;0.60;;
3643;SDS011;1838;50.742;7.158;2022-10-16T13:29:39;1.60;;;0.70;;
3643;SDS011;1838;50.742;7.158;2022-10-16T13:32:07;1.50;;;0.80;;
3643;SDS011;1838;50.742;7.158;2022-10-16T13:34:41;1.80;;;0.80;;
3643;SDS011;1838;50.742;7.158;2022-10-16T13:37:16;2.07;;;0.77;;
3643;SDS011;1838;50.742;7.158;2022-10-16T13:39:47;1.53;;;0.77;;
3643;SDS011;1838;50.742;7.158;2022-10-16T13:42:23;3.30;;;0.70;;
3643;SDS011;1838;50.742;7.158;2022-10-16T13:44:54;1.77;;;0.70;;
3643;SDS011;1838;50.742;7.158;2022-10-16T13:47:24;3.33;;;0.90;;
3643;SDS011;1838;50.742;7.158;2022-10-16T13:49:59;2.10;;;0.70;;
3643;SDS011;1838;50.742;7.158;2022-10-16T13:52:30;1.60;;;0.70;;
3643;SDS011;1838;50.742;7.158;2022-10-16T13:54:56;2.80;;;0.73;;
3643;SDS011;1838;50.742;7.158;2022-10-16T13:57:22;1.60;;;0.80;;
3643;SDS011;1838;50.742;7.158;2022-10-16T13:59:50;3.10;;;0.87;;
3643;SDS011;1838;50.742;7.158;2022-10-16T14:04:54;3.20;;;0.87;;
3643;SDS011;1838;50.742;7.158;2022-10-16T14:07:28;2.70;;;1.03;;
3643;SDS011;1838;50.742;7.158;2022-10-16T14:09:56;1.97;;;0.70;;
3643;SDS011;1838;50.742;7.158;2022-10-16T14:12:30;1.83;;;0.70;;
3643;SDS011;1838;50.742;7.158;2022-10-16T14:14:56;2.83;;;0.97;;
3643;SDS011;1838;50.742;7.158;2022-10-16T14:17:24;2.40;;;1.00;;
3643;SDS011;1838;50.742;7.158;2022-10-16T14:19:53;1.90;;;1.20;;
3643;SDS011;1838;50.742;7.158;2022-10-16T14:22:34;4.70;;;0.90;;
3643;SDS011;1838;50.742;7.158;2022-10-16T14:28:14;2.27;;;0.70;;
3643;SDS011;1838;50.742;7.158;2022-10-16T14:30:48;1.50;;;1.00;;
3643;SDS011;1838;50.742;7.158;2022-10-16T14:33:20;1.80;;;0.73;;
3643;SDS011;1838;50.742;7.158;2022-10-16T14:35:59;11.83;;;1.23;;
3643;SDS011;1838;50.742;7.158;2022-10-16T14:38:29;1.40;;;0.80;;
3643;SDS011;1838;50.742;7.158;2022-10-16T14:40:57;2.27;;;0.80;;
3643;SDS011;1838;50.742;7.158;2022-10-16T14:43:42;2.13;;;0.93;;
3643;SDS011;1838;50.742;7.158;2022-10-16T14:46:12;1.70;;;0.77;;
3643;SDS011;1838;50.742;7.158;2022-10-16T14:48:41;1.93;;;0.80;;
3643;SDS011;1838;50.742;7.158;2022-10-16T14:51:13;5.10;;;1.00;;
3643;SDS011;1838;50.742;7.158;2022-10-16T14:53:42;1.67;;;1.00;;
3643;SDS011;1838;50.742;7.158;2022-10-16T14:56:16;1.53;;;0.77;;
3643;SDS011;1838;50.742;7.158;2022-10-16T14:58:51;2.00;;;0.77;;
3643;SDS011;1838;50.742;7.158;2022-10-16T15:01:18;1.90;;;0.90;;
3643;SDS011;1838;50.742;7.158;2022-10-16T15:03:44;3.03;;;1.10;;
3643;SDS011;1838;50.742;7.158;2022-10-16T15:06:10;3.60;;;1.37;;
3643;SDS011;1838;50.742;7.158;2022-10-16T15:08:37;1.70;;;0.93;;
3643;SDS011;1838;50.742;7.158;2022-10-16T15:11:03;4.30;;;1.20;;
3643;SDS011;1838;50.742;7.158;2022-10-16T15:13:28;3.53;;;1.20;;
3643;SDS011;1838;50.742;7.158;2022-10-16T15:15:54;1.87;;;0.90;;
3643;SDS011;1838;50.742;7.158;2022-10-16T15:18:19;6.33;;;1.00;;
3643;SDS011;1838;50.742;7.158;2022-10-16T15:20:50;1.80;;;1.43;;
3643;SDS011;1838;50.742;7.158;2022-10-16T15:23:16;1.77;;;0.80;;
3643;SDS011;1838;50.742;7.158;2022-10-16T15:25:47;4.40;;;1.00;;
3643;SDS011;1838;50.742;7.158;2022-10-16T15:28:17;1.90;;;1.10;;
3643;SDS011;1838;50.742;7.158;2022-10-16T15:30:45;2.50;;;1.13;;
3643;SDS011;1838;50.742;7.158;2022-10-16T15:33:12;6.10;;;1.13;;
3643;SDS011;1838;50.742;7.158;2022-10-16T15:35:49;5.30;;;1.10;;
3643;SDS011;1838;50.742;7.158;2022-10-16T15:38:16;2.97;;;1.00;;
3643;SDS011;1838;50.742;7.158;2022-10-16T15:40:42;1.90;;;1.10;;
3643;SDS011;1838;50.742;7.158;2022-10-16T15:43:08;3.83;;;1.00;;
3643;SDS011;1838;50.742;7.158;2022-10-16T15:45:34;2.50;;;1.10;;
3643;SDS011;1838;50.742;7.158;2022-10-16T15:48:00;1.73;;;0.90;;
3643;SDS011;1838;50.742;7.158;2022-10-16T15:50:25;9.73;;;1.50;;
3643;SDS011;1838;50.742;7.158;2022-10-16T15:52:51;1.90;;;1.00;;
3643;SDS011;1838;50.742;7.158;2022-10-16T15:55:17;4.90;;;1.47;;
3643;SDS011;1838;50.742;7.158;2022-10-16T15:57:44;2.37;;;1.10;;
3643;SDS011;1838;50.742;7.158;2022-10-16T16:00:11;5.50;;;1.07;;
3643;SDS011;1838;50.742;7.158;2022-10-16T16:02:42;2.33;;;1.00;;
3643;SDS011;1838;50.742;7.158;2022-10-16T16:05:14;2.93;;;0.80;;
3643;SDS011;1838;50.742;7.158;2022-10-16T16:07:39;1.83;;;0.87;;
3643;SDS011;1838;50.742;7.158;2022-10-16T16:10:06;2.20;;;1.30;;
3643;SDS011;1838;50.742;7.158;2022-10-16T16:12:33;2.60;;;0.97;;
3643;SDS011;1838;50.742;7.158;2022-10-16T16:14:59;2.87;;;1.00;;
3643;SDS011;1838;50.742;7.158;2022-10-16T16:17:24;5.10;;;1.27;;
3643;SDS011;1838;50.742;7.158;2022-10-16T16:19:50;9.43;;;1.70;;
3643;SDS011;1838;50.742;7.158;2022-10-16T16:22:16;1.97;;;1.07;;
3643;SDS011;1838;50.742;7.158;2022-10-16T16:24:42;5.10;;;1.57;;
3643;SDS011;1838;50.742;7.158;2022-10-16T16:27:07;3.13;;;1.07;;
3643;SDS011;1838;50.742;7.158;2022-10-16T16:29:33;1.60;;;0.90;;
3643;SDS011;1838;50.742;7.158;2022-10-16T16:31:59;1.63;;;1.00;;
3643;SDS011;1838;50.742;7.158;2022-10-16T16:34:25;2.87;;;1.00;;
3643;SDS011;1838;50.742;7.158;2022-10-16T16:36:52;2.37;;;1.10;;
3643;SDS011;1838;50.742;7.158;2022-10-16T16:39:18;2.87;;;0.80;;
3643;SDS011;1838;50.742;7.158;2022-10-16T16:41:43;1.87;;;1.20;;
3643;SDS011;1838;50.742;7.158;2022-10-16T16:44:10;2.93;;;0.90;;
3643;SDS011;1838;50.742;7.158;2022-10-16T16:46:39;1.60;;;0.90;;
3643;SDS011;1838;50.742;7.158;2022-10-16T16:49:05;3.30;;;1.20;;
3643;SDS011;1838;50.742;7.158;2022-10-16T16:51:31;2.60;;;1.10;;
3643;SDS011;1838;50.742;7.158;2022-10-16T16:53:57;4.63;;;1.13;;
3643;SDS011;1838;50.742;7.158;2022-10-16T16:56:24;2.63;;;0.90;;
3643;SDS011;1838;50.742;7.158;2022-10-16T16:58:51;3.57;;;1.27;;
3643;SDS011;1838;50.742;7.158;2022-10-16T17:01:18;1.70;;;1.10;;
3643;SDS011;1838;50.742;7.158;2022-10-16T17:03:44;3.53;;;1.23;;
3643;SDS011;1838;50.742;7.158;2022-10-16T17:06:10;6.10;;;1.20;;
3643;SDS011;1838;50.742;7.158;2022-10-16T17:08:37;5.33;;;1.40;;
3643;SDS011;1838;50.742;7.158;2022-10-16T17:11:12;1.56;;;0.83;;
3643;SDS011;1838;50.742;7.158;2022-10-16T17:13:39;1.90;;;1.20;;
3643;SDS011;1838;50.742;7.158;2022-10-16T17:16:05;3.07;;;1.17;;
3643;SDS011;1838;50.742;7.158;2022-10-16T17:18:31;1.90;;;1.30;;
3643;SDS011;1838;50.742;7.158;2022-10-16T17:21:00;4.00;;;1.03;;
3643;SDS011;1838;50.742;7.158;2022-10-16T17:23:28;2.80;;;1.20;;